Time,TemperatureF,DewpointF,PressureIn,WindDirection,WindDirectionDegrees,WindSpeedMPH,WindSpeedGustMPH,Humidity,HourlyPrecipIn,Conditions,Clouds,dailyrainin,SoftwareType,DateUTC
2013-07-28 06:22:00,67.0,65.0,29.94,NNW,345,0.0,0.0,94,0.01,,,0.17,,2013-07-28 11:22:00,
2013-07-28 06:33:00,67.0,65.0,29.94,NNW,344,0.0,0.0,94,0.01,,,0.17,,2013-07-28 11:33:00,
2013-07-28 06:43:00,67.0,65.0,29.95,NNW,344,0.0,0.0,94,0.01,,,0.17,,2013-07-28 11:43:00,
2013-07-28 06:54:00,67.0,65.0,29.95,NNW,344,0.0,0.0,94,0.01,,,0.17,,2013-07-28 11:54:00,
2013-07-28 07:02:00,67.0,66.0,29.95,NNW,344,0.0,0.0,95,0.00,,,0.17,,2013-07-28 12:02:00,
2013-07-28 07:12:00,67.0,66.0,29.95,NNW,344,0.0,0.0,95,0.00,,,0.17,,2013-07-28 12:12:00,
2013-07-28 07:22:00,67.0,66.0,29.95,NNW,344,0.0,0.0,95,0.00,,,0.17,,2013-07-28 12:22:00,
2013-07-28 07:33:00,67.0,66.0,29.96,NNW,344,0.0,1.0,96,0.00,,,0.17,,2013-07-28 12:33:00,
2013-07-28 07:43:00,68.0,67.0,29.96,NNW,344,0.0,0.0,96,0.00,,,0.17,,2013-07-28 12:43:00,
2013-07-28 07:53:00,68.0,67.0,29.96,NNW,344,0.0,0.0,96,0.00,,,0.17,,2013-07-28 12:53:00,
2013-07-28 08:02:00,69.0,68.0,29.97,NNW,344,1.0,3.0,96,0.00,,,0.17,,2013-07-28 13:02:00,
2013-07-28 08:12:00,70.0,69.0,29.97,NNW,342,2.0,5.0,96,0.00,,,0.16,,2013-07-28 13:12:00,
2013-07-28 08:22:00,70.0,69.0,29.97,NNW,342,2.0,5.0,96,0.00,,,0.16,,2013-07-28 13:22:00,
2013-07-28 08:32:00,72.0,70.0,29.97,North,355,2.0,4.0,95,0.00,,,0.16,,2013-07-28 13:32:00,
2013-07-28 08:43:00,73.0,71.0,29.98,North,360,4.0,7.0,93,0.00,,,0.16,,2013-07-28 13:43:00,
2013-07-28 08:52:00,73.0,71.0,29.98,North,360,4.0,7.0,93,0.00,,,0.16,,2013-07-28 13:52:00,
2013-07-28 09:02:00,74.0,72.0,29.99,North,355,4.0,8.0,92,0.00,,,0.16,,2013-07-28 14:02:00,
2013-07-28 09:12:00,75.0,72.0,29.99,NNE,13,3.0,8.0,90,0.00,,,0.14,,2013-07-28 14:12:00,
2013-07-28 09:23:00,75.0,72.0,29.99,NNE,13,3.0,8.0,90,0.00,,,0.14,,2013-07-28 14:23:00,
2013-07-28 09:33:00,77.0,72.0,29.98,NNE,27,3.0,8.0,86,0.00,,,0.14,,2013-07-28 14:33:00,
2013-07-28 09:53:00,78.0,72.0,29.98,North,5,4.0,7.0,83,0.00,,,0.14,,2013-07-28 14:53:00,
2013-07-28 10:03:00,79.0,73.0,29.98,NNE,15,4.0,7.0,81,0.00,,,0.14,,2013-07-28 15:03:00,
2013-07-28 10:13:00,79.0,72.0,29.98,ENE,61,5.0,9.0,80,0.00,,,0.01,,2013-07-28 15:13:00,
2013-07-28 10:22:00,79.0,72.0,29.98,ENE,61,5.0,9.0,80,0.00,,,0.01,,2013-07-28 15:22:00,
2013-07-28 10:32:00,79.0,71.0,29.98,ENE,62,4.0,8.0,76,0.00,,,0.01,,2013-07-28 15:32:00,
2013-07-28 10:43:00,80.0,71.0,29.98,East,81,3.0,8.0,74,0.00,,,0.01,,2013-07-28 15:43:00,
2013-07-28 10:53:00,80.0,71.0,29.98,East,81,3.0,8.0,74,0.00,,,0.01,,2013-07-28 15:53:00,
2013-07-28 11:02:00,80.0,72.0,29.98,NE,53,1.0,8.0,76,0.00,,,0.01,,2013-07-28 16:02:00,
2013-07-28 11:12:00,81.0,72.0,29.98,NE,38,3.0,7.0,74,0.00,,,0.01,,2013-07-28 16:12:00,
2013-07-28 11:22:00,81.0,72.0,29.98,NE,38,3.0,7.0,74,0.00,,,0.01,,2013-07-28 16:22:00,
2013-07-28 11:33:00,82.0,71.0,29.98,ENE,73,5.0,8.0,70,0.00,,,0.01,,2013-07-28 16:33:00,
2013-07-28 11:43:00,82.0,70.0,29.98,NE,54,2.0,8.0,68,0.00,,,0.01,,2013-07-28 16:43:00,
2013-07-28 11:52:00,82.0,70.0,29.98,NE,54,2.0,8.0,68,0.00,,,0.01,,2013-07-28 16:52:00,
2013-07-28 12:02:00,83.0,72.0,29.98,NE,53,3.0,7.0,69,0.00,,,0.01,,2013-07-28 17:02:00,
2013-07-28 12:12:00,84.0,74.0,29.98,ENE,60,2.0,8.0,73,0.00,,,0.01,,2013-07-28 17:12:00,
2013-07-28 12:23:00,84.0,74.0,29.98,ENE,60,2.0,8.0,73,0.00,,,0.01,,2013-07-28 17:23:00,
2013-07-28 12:32:00,84.0,73.0,29.98,NNW,348,3.0,5.0,70,0.00,,,0.01,,2013-07-28 17:32:00,
2013-07-28 12:53:00,84.0,73.0,29.98,North,355,3.0,6.0,69,0.00,,,0.01,,2013-07-28 17:53:00,
2013-07-28 13:03:00,85.0,73.0,29.98,North,11,3.0,7.0,67,0.00,,,0.01,,2013-07-28 18:03:00,
2013-07-28 13:22:00,84.0,71.0,29.98,NE,43,0.0,5.0,65,0.00,,,0.01,,2013-07-28 18:22:00,
2013-07-28 13:33:00,85.0,74.0,29.98,NNE,18,3.0,7.0,69,0.00,,,0.01,,2013-07-28 18:33:00,
2013-07-28 13:43:00,84.0,72.0,29.98,NNW,345,2.0,8.0,68,0.00,,,0.01,,2013-07-28 18:43:00,
2013-07-28 13:52:00,84.0,72.0,29.98,NNW,345,2.0,8.0,68,0.00,,,0.01,,2013-07-28 18:52:00,
2013-07-28 14:02:00,85.0,73.0,29.97,ENE,69,3.0,7.0,68,0.00,,,0.01,,2013-07-28 19:02:00,
2013-07-28 14:12:00,84.0,71.0,29.97,ENE,59,0.0,4.0,66,0.00,,,0.01,,2013-07-28 19:12:00,
2013-07-28 14:22:00,84.0,71.0,29.97,ENE,59,0.0,4.0,66,0.00,,,0.01,,2013-07-28 19:22:00,
2013-07-28 14:33:00,85.0,72.0,29.96,NNE,25,2.0,6.0,65,0.00,,,0.01,,2013-07-28 19:33:00,
2013-07-28 14:52:00,86.0,72.0,29.96,NE,48,4.0,6.0,63,0.00,,,0.01,,2013-07-28 19:52:00,
2013-07-28 15:02:00,85.0,70.0,29.96,ENE,67,0.0,8.0,61,0.00,,,0.01,,2013-07-28 20:02:00,
2013-07-28 15:23:00,85.0,70.0,29.96,ENE,69,2.0,6.0,62,0.00,,,0.01,,2013-07-28 20:23:00,
2013-07-28 15:33:00,85.0,72.0,29.96,NE,44,1.0,5.0,66,0.00,,,0.01,,2013-07-28 20:33:00,
2013-07-28 15:52:00,85.0,72.0,29.96,ENE,60,2.0,6.0,66,0.00,,,0.01,,2013-07-28 20:52:00,
2013-07-28 16:03:00,86.0,73.0,29.96,ENE,64,4.0,7.0,65,0.00,,,0.01,,2013-07-28 21:03:00,
2013-07-28 16:12:00,87.0,72.0,29.95,NE,53,2.0,5.0,62,0.00,,,0.01,,2013-07-28 21:12:00,
2013-07-28 16:22:00,87.0,72.0,29.95,NE,53,2.0,5.0,62,0.00,,,0.01,,2013-07-28 21:22:00,
2013-07-28 16:33:00,86.0,72.0,29.95,NE,41,3.0,6.0,64,0.00,,,0.01,,2013-07-28 21:33:00,
2013-07-28 16:44:00,85.0,72.0,29.95,ENE,65,3.0,5.0,66,0.00,,,0.01,,2013-07-28 21:44:00,
2013-07-28 16:52:00,85.0,72.0,29.95,ENE,65,3.0,5.0,66,0.00,,,0.01,,2013-07-28 21:52:00,
2013-07-28 17:02:00,86.0,72.0,29.95,ENE,63,4.0,7.0,63,0.00,,,0.01,,2013-07-28 22:02:00,
2013-07-28 17:12:00,87.0,73.0,29.95,ENE,74,2.0,5.0,64,0.00,,,0.01,,2013-07-28 22:12:00,
2013-07-28 17:22:00,87.0,73.0,29.95,ENE,74,2.0,5.0,64,0.00,,,0.01,,2013-07-28 22:22:00,
2013-07-28 17:32:00,86.0,72.0,29.95,ENE,63,1.0,5.0,63,0.00,,,0.01,,2013-07-28 22:32:00,
2013-07-28 17:43:00,87.0,72.0,29.95,NE,45,1.0,3.0,62,0.00,,,0.01,,2013-07-28 22:43:00,
2013-07-28 17:52:00,87.0,72.0,29.95,NE,45,1.0,3.0,62,0.00,,,0.01,,2013-07-28 22:52:00,
2013-07-28 18:03:00,86.0,71.0,29.95,SE,139,0.0,5.0,62,0.00,,,0.01,,2013-07-28 23:03:00,
2013-07-28 18:12:00,87.0,73.0,29.95,NE,49,3.0,6.0,63,0.00,,,0.01,,2013-07-28 23:12:00,
2013-07-28 18:22:00,87.0,73.0,29.95,NE,49,3.0,6.0,63,0.00,,,0.01,,2013-07-28 23:22:00,
2013-07-28 18:32:00,86.0,72.0,29.95,NNE,29,2.0,4.0,63,0.00,,,0.01,,2013-07-28 23:32:00,
2013-07-28 18:43:00,86.0,72.0,29.96,NE,55,0.0,4.0,64,0.00,,,0.01,,2013-07-28 23:43:00,
2013-07-28 18:53:00,86.0,72.0,29.96,NE,55,0.0,4.0,64,0.00,,,0.01,,2013-07-28 23:53:00,
2013-07-28 19:03:00,86.0,71.0,29.96,ENE,58,1.0,4.0,62,0.00,,,0.01,,2013-07-29 00:03:00,
2013-07-28 19:22:00,86.0,73.0,29.96,ENE,61,2.0,4.0,65,0.00,,,0.01,,2013-07-29 00:22:00,
2013-07-28 19:32:00,85.0,73.0,29.96,ENE,61,0.0,2.0,68,0.00,,,0.01,,2013-07-29 00:32:00,
2013-07-28 19:52:00,84.0,74.0,29.96,ENE,61,0.0,2.0,73,0.00,,,0.01,,2013-07-29 00:52:00,
2013-07-28 20:02:00,83.0,75.0,29.96,ENE,61,0.0,1.0,76,0.00,,,0.01,,2013-07-29 01:02:00,
2013-07-28 20:13:00,81.0,75.0,29.96,ENE,61,0.0,0.0,81,0.00,,,0.01,,2013-07-29 01:13:00,
2013-07-28 20:28:00,81.0,75.0,29.96,ENE,61,0.0,0.0,81,0.00,,,0.01,,2013-07-29 01:28:00,
2013-07-28 20:35:00,81.0,75.0,29.96,ENE,61,0.0,0.0,81,0.00,,,0.01,,2013-07-29 01:35:00,
2013-07-28 20:57:00,78.0,73.0,29.96,ENE,61,0.0,1.0,85,0.00,,,0.01,,2013-07-29 01:57:00,
2013-07-28 21:05:00,77.0,73.0,29.96,ENE,61,0.0,0.0,88,0.00,,,0.01,,2013-07-29 02:05:00,
2013-07-28 21:14:00,77.0,74.0,29.96,ENE,61,0.0,0.0,89,0.00,,,0.01,,2013-07-29 02:14:00,
2013-07-28 21:25:00,77.0,74.0,29.96,ENE,61,0.0,0.0,89,0.00,,,0.01,,2013-07-29 02:25:00,
2013-07-28 21:36:00,76.0,73.0,29.97,ENE,61,0.0,0.0,89,0.00,,,0.01,,2013-07-29 02:36:00,
2013-07-28 22:03:00,76.0,73.0,29.98,ENE,61,0.0,0.0,91,0.00,,,0.01,,2013-07-29 03:03:00,
2013-07-28 22:16:00,76.0,73.0,29.98,ENE,61,0.0,0.0,91,0.00,,,0.01,,2013-07-29 03:16:00,
2013-07-28 22:24:00,76.0,73.0,29.98,ENE,61,0.0,0.0,91,0.00,,,0.01,,2013-07-29 03:24:00,
2013-07-28 22:36:00,75.0,73.0,29.99,ENE,61,0.0,0.0,92,0.00,,,0.01,,2013-07-29 03:36:00,
2013-07-28 22:41:00,74.0,72.0,29.99,ENE,61,0.0,1.0,92,0.00,,,0.01,,2013-07-29 03:41:00,
2013-07-28 22:56:00,75.0,73.0,29.99,ENE,61,0.0,0.0,93,0.00,,,0.01,,2013-07-29 03:56:00,
2013-07-28 23:02:00,74.0,72.0,29.99,ENE,61,0.0,1.0,92,0.00,,,0.01,,2013-07-29 04:02:00,
2013-07-28 23:12:00,74.0,72.0,29.99,ENE,61,0.0,1.0,92,0.00,,,0.01,,2013-07-29 04:12:00,
2013-07-28 23:22:00,74.0,72.0,29.99,ENE,61,0.0,1.0,92,0.00,,,0.01,,2013-07-29 04:22:00,
2013-07-28 23:32:00,74.0,72.0,29.99,ENE,61,0.0,1.0,92,0.00,,,0.01,,2013-07-29 04:32:00,